createdAt,value
2023-05-06T00:05:47.375Z,7.30
2023-05-06T00:15:52.907Z,7.85
2023-05-06T00:25:59.502Z,7.60
2023-05-06T00:36:06.467Z,7.20
2023-05-06T00:46:13.095Z,7.40
2023-05-06T00:56:20.907Z,7.30
2023-05-06T01:06:29.096Z,7.90
2023-05-06T01:16:37.920Z,7.20
2023-05-06T01:26:45.386Z,7.50
2023-05-06T01:37:16.243Z,7.20
2023-05-06T01:47:22.879Z,6.80
2023-05-06T01:57:30.291Z,6.90
2023-05-06T02:07:37.070Z,7.10
2023-05-06T02:17:44.692Z,7.30
2023-05-06T02:27:51.336Z,7.30
2023-05-06T02:37:57.776Z,7.40
2023-05-06T02:48:04.438Z,7.70
2023-05-06T02:58:10.987Z,7.50
2023-05-06T03:08:17.611Z,7.40
2023-05-06T03:18:24.168Z,7.10
2023-05-06T03:28:30.685Z,7.30
2023-05-06T03:38:37.192Z,7.20
2023-05-06T03:48:43.698Z,7.10
2023-05-06T03:58:50.378Z,7.70
2023-05-06T04:08:57.016Z,7.10
2023-05-06T04:19:06.457Z,7.50
2023-05-06T04:29:13.190Z,7.70
2023-05-06T04:39:19.737Z,6.90
2023-05-06T04:49:26.245Z,7.30
2023-05-06T04:59:32.761Z,7.40
2023-05-06T05:09:39.309Z,6.50
2023-05-06T05:19:45.817Z,7.60
2023-05-06T05:29:52.304Z,7.10
2023-05-06T05:39:58.919Z,7.20
2023-05-06T05:50:05.796Z,7.10
2023-05-06T06:00:13.546Z,7.00
2023-05-06T06:10:20.364Z,7.70
2023-05-06T06:20:26.918Z,7.30
2023-05-06T06:30:33.389Z,7.80
2023-05-06T06:40:39.900Z,7.70
2023-05-06T06:50:46.665Z,6.90
2023-05-06T07:00:53.690Z,7.10
2023-05-06T07:11:00.192Z,7.10
2023-05-06T07:21:06.723Z,6.90
2023-05-06T07:31:13.364Z,6.80
2023-05-06T07:41:19.987Z,6.90
2023-05-06T07:51:26.570Z,6.90
2023-05-06T08:01:33.103Z,6.30
2023-05-06T08:11:40.285Z,7.20
2023-05-06T08:21:46.745Z,7.00
2023-05-06T08:31:53.331Z,7.80
2023-05-06T08:42:01.069Z,8.00
2023-05-06T08:52:08.048Z,6.70
2023-05-06T09:02:14.679Z,7.40
2023-05-06T09:12:21.169Z,7.10
2023-05-06T09:22:29.205Z,7.10
2023-05-06T09:32:39.121Z,7.50
2023-05-06T09:42:46.768Z,8.30
2023-05-06T09:52:53.833Z,11.60
2023-05-06T10:03:00.611Z,9.10
2023-05-06T10:13:07.487Z,8.60
2023-05-06T10:23:28.227Z,10.20
2023-05-06T10:33:35.333Z,11.60
2023-05-06T10:43:44.000Z,11.10
2023-05-06T10:54:09.983Z,12.10
2023-05-06T11:04:19.320Z,12.10
2023-05-06T11:14:40.925Z,12.60
2023-05-06T11:24:47.409Z,13.50
2023-05-06T11:34:57.334Z,17.20
2023-05-06T11:45:03.885Z,15.90
2023-05-06T11:55:11.462Z,18.50
2023-05-06T12:05:17.946Z,13.90
2023-05-06T12:15:24.548Z,11.70
2023-05-06T12:25:31.052Z,13.40
2023-05-06T12:35:37.538Z,15.10
2023-05-06T12:45:44.164Z,15.10
2023-05-06T12:55:50.661Z,16.40
2023-05-06T13:05:57.169Z,16.90
2023-05-06T13:16:04.088Z,23.40
2023-05-06T13:26:10.564Z,28.60
2023-05-06T13:36:17.199Z,24.70
2023-05-06T13:46:24.556Z,30.60
2023-05-06T13:56:31.153Z,34.00
2023-05-06T14:06:37.662Z,37.20
2023-05-06T14:16:44.202Z,35.80
2023-05-06T14:26:50.796Z,31.90
2023-05-06T14:36:57.366Z,27.30
2023-05-06T14:47:04.058Z,27.40
2023-05-06T14:57:11.068Z,23.10
2023-05-06T15:07:17.981Z,19.50
2023-05-06T15:17:24.519Z,20.30
2023-05-06T15:27:32.103Z,22.30
2023-05-06T15:37:38.594Z,21.20
2023-05-06T15:47:45.159Z,21.90
2023-05-06T15:57:52.371Z,21.90
2023-05-06T16:07:58.991Z,23.30
2023-05-06T16:18:05.635Z,21.60
2023-05-06T16:28:12.452Z,23.00
2023-05-06T16:38:19.033Z,23.20
2023-05-06T16:48:25.737Z,20.70
2023-05-06T16:58:32.366Z,21.40
2023-05-06T17:08:38.946Z,23.50
2023-05-06T17:18:47.449Z,24.40
2023-05-06T17:28:54.000Z,21.40
2023-05-06T17:39:06.800Z,20.00
2023-05-06T17:49:13.383Z,18.40
2023-05-06T17:59:23.124Z,31.00
2023-05-06T18:09:29.695Z,19.40
2023-05-06T18:19:35.255Z,54.40
2023-05-06T18:29:42.634Z,19.40
2023-05-06T18:39:49.216Z,17.40
2023-05-06T18:49:56.163Z,17.90
2023-05-06T19:00:02.674Z,17.10
2023-05-06T19:10:09.683Z,18.70
2023-05-06T19:20:16.318Z,18.00
2023-05-06T19:30:22.951Z,16.30
2023-05-06T19:40:30.343Z,20.80
2023-05-06T19:50:36.939Z,20.80
2023-05-06T20:00:43.470Z,23.30
2023-05-06T20:10:50.106Z,33.90
2023-05-06T20:20:57.693Z,20.60
2023-05-06T20:31:04.165Z,19.40
2023-05-06T20:41:11.321Z,19.60
2023-05-06T20:51:17.897Z,19.80
2023-05-06T21:01:25.605Z,20.40
2023-05-06T21:11:32.246Z,19.10
2023-05-06T21:21:38.831Z,18.00
2023-05-06T21:31:45.329Z,16.20
2023-05-06T21:41:51.876Z,14.00
2023-05-06T21:51:58.338Z,12.10
2023-05-06T22:02:05.413Z,12.60
2023-05-06T22:12:14.479Z,12.80
2023-05-06T22:22:20.960Z,12.50
2023-05-06T22:32:27.688Z,15.50
2023-05-06T22:42:34.268Z,15.60
2023-05-06T22:52:41.030Z,15.60
2023-05-06T23:02:47.680Z,17.20
2023-05-06T23:12:54.254Z,17.60
2023-05-06T23:23:00.879Z,18.30
2023-05-06T23:33:08.300Z,14.60
2023-05-06T23:43:14.847Z,14.00
2023-05-06T23:53:21.863Z,14.60
